Latest Weather Observations for Warragul (Nilma North)

IDV60801

Issued at 4:05 pm EST Monday 22 September 2014 (issued every 30 minutes, with the page automatically refreshed every 10 minutes)

About weather observations | Map of weather stations | Latest weather observations for VIC | Other Formats
Station Details ID: 085313 Name: NILMA NORTH (WARRAGUL) Lat: -38.13 Lon: 145.99 Height: 134.11 m
Data from the previous 72 hours. | See also: Recent months for locations in Victoria
Date/Time
EST
Temp
°C
App
Temp
°C
Dew
Point
Rel
Hum
%
Delta-T
°C
Wind Press
QNH
hPa
Press
MSL
hPa
Rain
since 9 am
mm
Dir
 
Spd
km/h
Gust
km/h
Spd
kts
Gust
kts
22/04:00pm 20.8 20.1 11.4 55 5.2 W 6 11 3 6 1026.0 1026.1 0.0
22/03:30pm 20.7 20.2 11.9 57 4.9 WSW 6 11 3 6 1026.0 1026.1 0.0
22/03:00pm 20.6 19.8 11.0 54 5.3 W 6 11 3 6 1026.2 1026.3 0.0
22/02:30pm 19.9 19.2 11.4 58 4.7 S 6 9 3 5 1026.4 1026.5 0.0
22/02:00pm 19.8 19.4 11.0 57 4.8 SSW 4 9 2 5 1026.5 1026.6 0.0
22/01:30pm 20.2 20.0 10.3 53 5.4 W 2 6 1 3 1026.9 1027.0 0.0
22/01:00pm 18.8 18.0 9.6 55 4.9 WSW 4 6 2 3 1027.3 1027.4 0.0
22/12:30pm 17.5 16.4 8.6 56 4.6 WSW 4 7 2 4 1027.8 1028.0 0.0
22/12:00pm 16.8 15.6 8.0 56 4.5 SW 4 7 2 4 1028.3 1028.5 0.0
22/11:30am 16.4 16.0 8.4 59 4.1 CALM 0 4 0 2 1028.6 1028.8 0.0
22/11:00am 15.2 14.6 8.9 66 3.2 ENE 2 6 1 3 1029.2 1029.3 0.0
22/10:30am 14.1 13.5 8.9 71 2.7 NNW 2 4 1 2 1029.5 1029.6 0.0
22/10:00am 12.4 11.2 7.9 74 2.2 SE 4 7 2 4 1029.6 1029.7 0.0
22/09:30am 11.6 9.7 6.7 72 2.3 E 6 9 3 5 1029.6 1029.7 0.0
22/09:00am 10.8 8.7 6.7 76 1.9 E 7 9 4 5 1029.7 1029.8 0.2
22/08:30am 9.5 7.4 6.8 83 1.3 E 7 13 4 7 1029.7 1029.8 0.2
22/08:00am 8.2 6.0 6.0 86 1.0 E 7 11 4 6 1029.9 1030.0 0.2
22/07:30am 6.2 4.5 6.1 99 0.0 ENE 4 6 2 3 1029.7 1029.8 0.2
22/07:00am 3.2 1.4 3.2 100 0.0 E 2 4 1 2 1029.6 1029.7 0.2
22/06:30am 2.3 -0.1 2.3 100 0.0 E 4 6 2 3 1029.4 1029.5 0.2
22/06:00am 1.0 -1.6 0.9 99 0.0 E 4 4 2 2 1029.0 1029.2 0.2
22/05:30am 2.1 0.1 2.1 100 0.0 E 2 4 1 2 1028.9 1029.1 0.2
22/05:00am 1.3 -1.6 1.3 100 0.0 E 6 6 3 3 1028.7 1028.9 0.2
22/04:30am 1.3 -0.5 1.2 99 0.0 CALM 0 0 0 0 1028.7 1028.9 0.2
22/04:00am 2.1 0.4 2.0 99 0.0 CALM 0 0 0 0 1028.7 1028.9 0.2
22/03:30am 3.4 2.0 3.3 99 0.0 CALM 0 0 0 0 1028.8 1029.0 0.2
22/03:00am 3.1 1.6 3.0 99 0.0 CALM 0 0 0 0 1028.9 1029.1 0.2
22/02:30am 3.4 2.0 3.3 99 0.0 CALM 0 0 0 0 1029.3 1029.4 0.2
22/02:00am 2.9 1.3 2.6 98 0.1 CALM 0 0 0 0 1029.4 1029.5 0.2
22/01:30am 4.1 2.4 3.8 98 0.1 ESE 2 4 1 2 1029.7 1029.8 0.2
22/01:00am 4.0 2.6 3.6 97 0.2 CALM 0 0 0 0 1029.6 1029.7 0.2
22/12:30am 5.5 4.4 5.2 98 0.1 CALM 0 0 0 0 1029.6 1029.7 0.2
22/12:00am 4.8 3.5 4.2 96 0.3 NE 0 0 0 0 1029.6 1029.7 0.2
 
Date/Time
EST
Temp
°C
App
Temp
°C
Dew
Point
Rel
Hum
%
Delta-T
°C
Wind Press
QNH
hPa
Press
MSL
hPa
Rain
since 9 am
mm
Dir
 
Spd
km/h
Gust
km/h
Spd
kts
Gust
kts
21/11:30pm 6.1 4.7 5.5 96 0.3 NE 2 4 1 2 1029.8 1029.9 0.2
21/11:00pm 5.6 3.8 5.2 97 0.2 NE 4 6 2 3 1030.1 1030.2 0.2
21/10:30pm 6.1 5.1 5.4 95 0.3 CALM 0 4 0 2 1030.2 1030.3 0.2
21/10:00pm 6.4 5.4 5.7 95 0.3 CALM 0 0 0 0 1030.4 1030.5 0.2
21/09:30pm 6.6 5.6 5.7 94 0.4 CALM 0 0 0 0 1030.4 1030.5 0.2
21/09:00pm 7.0 6.0 5.5 90 0.7 CALM 0 0 0 0 1030.4 1030.5 0.2
21/08:30pm 8.0 7.2 6.3 89 0.8 CALM 0 0 0 0 1030.3 1030.4 0.2
21/08:00pm 9.3 8.6 6.9 85 1.1 CALM 0 0 0 0 1030.3 1030.4 0.2
21/07:30pm 9.9 8.8 7.0 82 1.4 SSW 2 2 1 1 1030.3 1030.4 0.2
21/07:00pm 10.3 9.7 7.4 82 1.4 CALM 0 2 0 1 1030.3 1030.4 0.2
21/06:30pm 11.2 10.3 7.9 80 1.6 SSW 2 6 1 3 1030.0 1030.1 0.2
21/06:00pm 11.7 9.9 8.0 78 1.8 S 7 11 4 6 1029.6 1029.7 0.2
21/05:30pm 13.5 11.9 8.6 72 2.5 S 7 9 4 5 1029.4 1029.5 0.2
21/05:00pm 14.6 13.0 8.1 65 3.2 WSW 6 7 3 4 1029.2 1029.3 0.2
21/04:30pm 15.3 13.3 7.3 59 4.0 W 7 13 4 7 1029.0 1029.2 0.2
21/04:00pm 15.4 13.7 8.4 63 3.5 WSW 7 17 4 9 1029.3 1029.4 0.2
21/03:30pm 15.2 13.2 7.3 59 3.9 SW 7 11 4 6 1029.3 1029.4 0.2
21/03:00pm 15.9 14.4 8.6 62 3.7 W 6 9 3 5 1029.3 1029.4 0.2
21/02:30pm 14.9 13.3 7.9 63 3.5 WNW 6 9 3 5 1029.6 1029.7 0.2
21/02:00pm 14.9 13.2 7.5 61 3.7 SW 6 11 3 6 1030.0 1030.1 0.0
21/01:30pm 14.5 12.2 7.5 63 3.5 W 9 15 5 8 1030.3 1030.4 0.0
21/01:00pm 14.4 12.6 7.0 61 3.6 WNW 6 9 3 5 1030.6 1030.7 0.0
21/12:30pm 13.9 11.9 6.3 60 3.7 WNW 6 9 3 5 1031.0 1031.1 0.0
21/12:00pm 13.6 11.9 7.4 66 3.0 W 6 9 3 5 1031.4 1031.5 0.0
21/11:30am 13.5 11.9 6.4 62 3.4 NW 4 9 2 5 1031.6 1031.7 0.0
21/11:00am 13.0 11.5 6.6 65 3.1 SSE 4 9 2 5 1031.9 1032.0 0.0
21/10:30am 12.4 10.3 5.6 63 3.2 WNW 6 9 3 5 1032.0 1032.1 0.0
21/10:00am 12.2 11.8 8.1 76 2.0 CALM 0 0 0 0 1032.0 1032.1 0.0
21/09:30am 11.0 9.9 8.6 85 1.2 SSE 4 6 2 3 1031.9 1032.0 0.0
21/09:00am 10.6 9.3 9.2 91 0.7 S 6 9 3 5 1031.8 1031.9 0.0
21/08:30am 10.5 9.3 8.1 85 1.2 N 4 6 2 3 1031.3 1031.4 0.0
21/08:00am 8.7 7.5 8.1 96 0.3 NNE 4 7 2 4 1031.2 1031.3 0.0
21/07:30am 7.4 6.0 7.1 98 0.1 NNE 4 6 2 3 1031.1 1031.2 0.0
21/07:00am 6.0 5.0 5.7 98 0.1 CALM 0 0 0 0 1031.1 1031.2 0.0
21/06:30am 6.2 5.3 5.9 98 0.1 CALM 0 0 0 0 1030.7 1030.8 0.0
21/06:00am 5.8 4.8 5.5 98 0.1 CALM 0 0 0 0 1030.2 1030.3 0.0
21/05:30am 5.8 4.8 5.5 98 0.1 CALM 0 0 0 0 1030.1 1030.2 0.0
21/05:00am 5.6 4.5 5.3 98 0.1 CALM 0 0 0 0 1029.9 1030.0 0.0
21/04:30am 5.7 4.6 5.3 97 0.2 CALM 0 0 0 0 1029.8 1029.9 0.0
21/04:00am 5.5 4.4 4.9 96 0.3 CALM 0 0 0 0 1029.6 1029.7 0.0
21/03:30am 6.1 5.1 5.5 96 0.3 CALM 0 0 0 0 1029.7 1029.8 0.0
21/03:00am 6.9 5.0 6.6 98 0.1 NW 6 7 3 4 1029.5 1029.6 0.0
21/02:30am 5.9 4.1 5.5 97 0.2 NNW 4 6 2 3 1029.5 1029.6 0.0
21/02:00am 6.1 4.4 5.8 98 0.1 NW 4 7 2 4 1029.8 1029.9 0.0
21/01:30am 6.1 4.4 5.8 98 0.1 NNW 4 6 2 3 1029.8 1029.9 0.0
21/01:00am 5.3 3.4 4.9 97 0.2 NW 4 6 2 3 1030.2 1030.3 0.0
21/12:30am 5.7 4.6 5.3 97 0.2 CALM 0 2 0 1 1030.1 1030.2 0.0
21/12:00am 5.8 4.8 5.4 97 0.2 CALM 0 4 0 2 1029.9 1030.0 0.0
 
Date/Time
EST
Temp
°C
App
Temp
°C
Dew
Point
Rel
Hum
%
Delta-T
°C
Wind Press
QNH
hPa
Press
MSL
hPa
Rain
since 9 am
mm
Dir
 
Spd
km/h
Gust
km/h
Spd
kts
Gust
kts
20/11:30pm 6.4 4.7 6.0 97 0.2 WNW 4 4 2 2 1030.1 1030.2 0.0
20/11:00pm 5.9 4.8 5.2 95 0.3 CALM 0 0 0 0 1029.9 1030.0 0.0
20/10:30pm 6.9 6.0 6.2 95 0.3 CALM 0 0 0 0 1030.1 1030.2 0.0
20/10:00pm 6.9 5.6 6.0 94 0.4 NW 2 6 1 3 1030.0 1030.1 0.0
20/09:30pm 6.6 5.5 5.2 91 0.6 CALM 0 4 0 2 1030.0 1030.1 0.0
20/09:00pm 8.2 6.7 7.0 92 0.6 NNW 4 6 2 3 1030.2 1030.3 0.0
20/08:30pm 8.3 7.2 6.8 90 0.7 W 2 4 1 2 1030.2 1030.3 0.0
20/08:00pm 8.7 7.2 6.8 88 0.9 WNW 4 4 2 2 1030.0 1030.1 0.0
20/07:30pm 9.2 7.8 7.2 87 0.9 W 4 6 2 3 1029.7 1029.8 0.0
20/07:00pm 9.8 9.2 7.2 84 1.2 CALM 0 4 0 2 1029.2 1029.3 0.0
20/06:30pm 9.9 8.8 7.0 82 1.4 NW 2 4 1 2 1028.7 1028.9 0.0
20/06:00pm 10.8 8.9 7.5 80 1.6 SSW 7 17 4 9 1028.6 1028.8 0.0
20/05:30pm 11.8 9.8 8.5 80 1.6 SSW 9 20 5 11 1028.1 1028.3 0.0
20/05:00pm 12.0 10.0 8.7 80 1.6 SSW 9 19 5 10 1027.7 1027.9 0.0
20/04:30pm 13.0 11.1 8.9 76 2.1 SW 9 17 5 9 1027.4 1027.5 0.0
20/04:00pm 13.4 10.8 9.5 77 2.0 SW 13 20 7 11 1027.1 1027.2 0.0
20/03:30pm 13.4 11.5 9.1 75 2.2 SSW 9 15 5 8 1026.7 1026.8 0.0
20/03:00pm 13.3 11.8 8.4 72 2.4 SW 6 15 3 8 1026.6 1026.7 0.0
20/02:30pm 13.7 11.6 8.1 69 2.8 SSW 9 19 5 10 1026.6 1026.7 0.0
20/02:00pm 15.2 13.4 9.3 68 3.0 SW 9 15 5 8 1026.4 1026.5 0.0
20/01:30pm 14.6 12.7 9.0 69 2.9 SW 9 15 5 8 1026.4 1026.5 0.0
20/01:00pm 14.2 12.2 8.6 69 2.8 SW 9 17 5 9 1026.5 1026.6 0.0
20/12:30pm 13.6 12.1 9.3 75 2.2 WSW 7 13 4 7 1026.7 1026.8 0.0
20/12:00pm 12.7 11.1 8.6 76 2.0 S 7 11 4 6 1027.1 1027.2 0.0
20/11:30am 13.4 11.7 10.0 80 1.8 NW 9 15 5 8 1027.1 1027.2 0.0
20/11:00am 11.5 9.6 9.1 85 1.2 W 9 15 5 8 1027.3 1027.4 0.0
20/10:30am 12.6 12.0 8.9 78 1.9 SW 2 9 1 5 1027.4 1027.5 0.0
20/10:00am 11.6 9.3 9.0 84 1.3 W 11 17 6 9 1027.5 1027.6 0.0
20/09:30am 11.8 10.1 9.9 88 1.0 W 9 15 5 8 1027.7 1027.9 0.0
20/09:00am 10.7 9.2 9.0 89 0.8 W 7 11 4 6 1027.5 1027.6 2.0
20/08:30am 10.0 8.4 8.8 92 0.6 W 7 11 4 6 1027.4 1027.5 2.0
20/08:00am 9.3 7.9 8.8 97 0.2 WNW 6 9 3 5 1027.1 1027.2 2.0
20/07:30am 9.0 7.6 8.7 98 0.1 WNW 6 7 3 4 1026.9 1027.0 2.0
20/07:00am 8.3 7.1 8.0 98 0.1 W 4 6 2 3 1026.6 1026.7 2.0
20/06:30am 7.7 5.9 7.3 97 0.2 NW 6 7 3 4 1026.2 1026.3 2.0
20/06:00am 8.0 6.7 7.6 97 0.2 WNW 4 6 2 3 1025.9 1026.0 2.0
20/05:30am 8.1 6.2 7.5 96 0.3 W 7 11 4 6 1025.4 1025.5 2.0
20/05:00am 8.2 6.8 7.3 94 0.4 W 4 6 2 3 1025.0 1025.1 1.8
20/04:30am 8.0 6.9 6.9 93 0.5 W 2 4 1 2 1024.7 1024.8 1.8
20/04:00am 7.8 6.0 7.1 95 0.3 NW 6 9 3 5 1024.6 1024.7 1.8
20/03:30am 7.5 6.0 6.8 95 0.3 NW 4 9 2 5 1024.6 1024.7 1.8
20/03:00am 7.3 5.7 6.2 93 0.5 NW 4 9 2 5 1024.5 1024.6 1.8
20/02:30am 8.1 6.3 7.2 94 0.4 NW 6 9 3 5 1024.6 1024.7 1.8
20/02:00am 8.2 6.4 7.3 94 0.4 WNW 6 9 3 5 1024.8 1024.9 1.8
20/01:30am 8.6 6.9 7.4 92 0.6 WNW 6 13 3 7 1024.8 1024.9 1.8
20/01:00am 8.5 6.7 7.0 90 0.7 WNW 6 11 3 6 1024.9 1025.0 1.8
20/12:30am 8.2 6.3 6.7 90 0.7 NW 6 9 3 5 1024.7 1024.8 1.8
20/12:00am 8.5 6.7 7.1 91 0.7 NW 6 9 3 5 1024.6 1024.7 1.8
 
Date/Time
EST
Temp
°C
App
Temp
°C
Dew
Point
Rel
Hum
%
Delta-T
°C
Wind Press
QNH
hPa
Press
MSL
hPa
Rain
since 9 am
mm
Dir
 
Spd
km/h
Gust
km/h
Spd
kts
Gust
kts
19/11:30pm 8.8 5.7 7.3 90 0.7 WNW 13 20 7 11 1024.8 1024.9 1.8
19/11:00pm 7.0 5.3 5.9 93 0.5 WNW 4 7 2 4 1025.0 1025.1 1.8
19/10:30pm 7.1 5.0 6.0 93 0.5 WNW 6 9 3 5 1025.1 1025.2 1.8
19/10:00pm 7.4 5.4 6.2 92 0.5 WNW 6 9 3 5 1025.1 1025.2 1.8
19/09:30pm 7.9 5.9 6.4 90 0.7 WNW 6 11 3 6 1025.2 1025.3 1.8
19/09:00pm 8.7 6.3 6.8 88 0.9 W 9 13 5 7 1025.1 1025.2 1.8
19/08:30pm 9.3 7.0 7.4 88 0.9 W 9 11 5 6 1024.9 1025.0 1.8
19/08:00pm 8.9 6.9 7.2 89 0.8 WNW 7 9 4 5 1024.8 1024.9 1.8
19/07:30pm 8.9 6.9 7.0 88 0.9 WNW 7 9 4 5 1024.5 1024.6 1.8
19/07:00pm 8.5 6.6 6.5 87 0.9 WNW 6 7 3 4 1024.3 1024.4 1.8
19/06:30pm 8.7 6.5 6.3 85 1.1 W 7 9 4 5 1024.0 1024.1 1.8
19/06:00pm 9.9 7.9 7.0 82 1.4 WNW 7 11 4 6 1023.8 1023.9 1.8
19/05:30pm 10.6 8.2 6.9 78 1.8 W 9 13 5 7 1023.6 1023.7 1.8
19/05:00pm 11.7 8.9 7.0 73 2.3 W 11 19 6 10 1023.4 1023.5 1.8
19/04:30pm 12.3 8.8 7.0 70 2.6 W 15 20 8 11 1023.2 1023.3 1.8

Other Formats:

Comma delimited format used in spreadsheet applications
http://www.bom.gov.au/fwo/IDV60801/IDV60801.99806.axf

JavaScript Object Notation format (JSON) in row-major order
http://www.bom.gov.au/fwo/IDV60801/IDV60801.99806.json